createdAt,value
2022-09-20T00:01:32.514Z,102148.31
2022-09-20T00:04:05.334Z,102141.28
2022-09-20T00:06:34.581Z,102142.19
2022-09-20T00:09:03.116Z,102143.06
2022-09-20T00:11:34.136Z,102141.28
2022-09-20T00:14:05.953Z,102139.56
2022-09-20T00:16:38.999Z,102137.75
2022-09-20T00:19:07.620Z,102136.00
2022-09-20T00:21:36.408Z,102143.03
2022-09-20T00:24:04.543Z,102138.66
2022-09-20T00:26:31.743Z,102145.69
2022-09-20T00:28:59.309Z,102143.03
2022-09-20T00:31:26.805Z,102149.19
2022-09-20T00:34:14.974Z,102150.06
2022-09-20T00:36:42.286Z,102150.06
2022-09-20T00:39:13.433Z,102149.19
2022-09-20T00:41:40.462Z,102147.44
2022-09-20T00:44:48.010Z,102148.31
2022-09-20T00:47:22.233Z,102154.47
2022-09-20T00:49:56.174Z,102146.63
2022-09-20T00:52:24.555Z,102152.78
2022-09-20T00:54:51.791Z,102157.19
2022-09-20T00:57:18.966Z,102154.56
2022-09-20T00:59:51.355Z,102138.75
2022-09-20T01:02:25.873Z,102145.78
2022-09-20T01:04:54.332Z,102144.00
2022-09-20T01:07:23.617Z,102146.66
2022-09-20T01:09:51.969Z,102146.69
2022-09-20T01:12:25.972Z,102139.66
2022-09-20T01:14:54.501Z,102139.66
2022-09-20T01:17:26.641Z,102143.19
2022-09-20T01:20:22.459Z,102145.88
2022-09-20T01:23:37.122Z,102155.53
2022-09-20T01:26:38.059Z,102152.94
2022-09-20T01:29:42.170Z,102152.06
2022-09-20T01:32:16.405Z,102156.47
2022-09-20T01:34:51.099Z,102158.25
2022-09-20T01:37:36.743Z,102154.72
2022-09-20T01:40:48.183Z,102160.94
2022-09-20T01:43:41.679Z,102150.38
2022-09-20T01:46:32.260Z,102145.97
2022-09-20T01:49:47.267Z,102145.13
2022-09-20T01:53:04.038Z,102146.06
2022-09-20T01:56:08.579Z,102145.28
2022-09-20T01:59:23.749Z,102149.72
2022-09-20T02:01:54.540Z,102156.84
2022-09-20T02:05:02.282Z,102151.56
2022-09-20T02:08:21.876Z,102155.94
2022-09-20T02:11:53.275Z,102158.59
2022-09-20T02:14:41.801Z,102152.44
2022-09-20T02:17:24.227Z,102157.69
2022-09-20T02:20:14.348Z,102155.09
2022-09-20T02:23:30.530Z,102148.94
2022-09-20T02:26:11.474Z,102157.75
2022-09-20T02:28:45.055Z,102152.50
2022-09-20T02:31:39.233Z,102145.44
2022-09-20T02:34:30.500Z,102152.47
2022-09-20T02:37:36.879Z,102147.22
2022-09-20T02:40:37.938Z,102147.25
2022-09-20T02:43:37.465Z,102146.41
2022-09-20T02:46:41.068Z,102143.75
2022-09-20T02:49:29.258Z,102133.25
2022-09-20T02:52:32.673Z,102143.75
2022-09-20T02:55:36.830Z,102145.50
2022-09-20T02:58:38.078Z,102145.47
2022-09-20T03:01:24.262Z,102152.50
2022-09-20T03:04:09.587Z,102154.22
2022-09-20T03:07:05.032Z,102149.81
2022-09-20T03:09:47.399Z,102146.31
2022-09-20T03:12:40.688Z,102143.66
2022-09-20T03:15:43.041Z,102141.91
2022-09-20T03:18:16.191Z,102148.91
2022-09-20T03:21:31.563Z,102143.63
2022-09-20T03:24:32.862Z,102148.91
2022-09-20T03:27:43.280Z,102144.53
2022-09-20T03:30:48.845Z,102156.84
2022-09-20T03:33:29.612Z,102154.22
2022-09-20T03:36:08.908Z,102146.31
2022-09-20T03:39:12.131Z,102151.56
2022-09-20T03:42:12.651Z,102157.72
2022-09-20T03:45:14.093Z,102155.94
2022-09-20T03:48:09.034Z,102147.16
2022-09-20T03:51:23.730Z,102154.19
2022-09-20T03:54:49.026Z,102150.66
2022-09-20T03:57:43.799Z,102153.34
2022-09-20T04:00:56.918Z,102157.75
2022-09-20T04:04:04.770Z,102158.66
2022-09-20T04:06:58.290Z,102160.44
2022-09-20T04:10:10.135Z,102156.94
2022-09-20T04:13:21.171Z,102151.66
2022-09-20T04:16:34.679Z,102156.94
2022-09-20T04:19:11.975Z,102156.94
2022-09-20T04:21:56.809Z,102156.94
2022-09-20T04:24:33.270Z,102159.59
2022-09-20T04:27:18.330Z,102155.19
2022-09-20T04:30:21.488Z,102158.75
2022-09-20T04:33:14.149Z,102151.75
2022-09-20T04:36:30.370Z,102156.16
2022-09-20T04:40:14.950Z,102157.91
2022-09-20T04:43:18.621Z,102157.06
2022-09-20T04:46:30.061Z,102157.03
2022-09-20T04:49:20.317Z,102161.47
2022-09-20T04:52:03.994Z,102158.81
2022-09-20T04:55:13.908Z,102161.47
2022-09-20T04:57:58.899Z,102165.84
2022-09-20T05:00:48.710Z,102169.38
2022-09-20T05:03:52.946Z,102171.97
2022-09-20T05:06:52.285Z,102171.91
2022-09-20T05:10:15.418Z,102181.59
2022-09-20T05:13:22.029Z,102182.47
2022-09-20T05:16:26.413Z,102182.53
2022-09-20T05:19:13.139Z,102179.03
2022-09-20T05:21:56.888Z,102173.81
2022-09-20T05:25:29.876Z,102180.84
2022-09-20T05:28:34.357Z,102183.56
2022-09-20T05:31:41.717Z,102184.50
2022-09-20T05:34:26.981Z,102182.78
2022-09-20T05:37:35.145Z,102194.25
2022-09-20T05:41:05.777Z,102186.38
2022-09-20T05:43:43.154Z,102189.03
2022-09-20T05:46:46.168Z,102197.81
2022-09-20T05:49:25.300Z,102198.69
2022-09-20T05:52:18.371Z,102190.75
2022-09-20T05:55:34.047Z,102198.66
2022-09-20T05:58:42.398Z,102199.56
2022-09-20T06:01:26.877Z,102201.28
2022-09-20T06:04:18.714Z,102207.38
2022-09-20T06:07:02.554Z,102202.09
2022-09-20T06:10:24.684Z,102204.69
2022-09-20T06:13:35.175Z,102214.34
2022-09-20T06:16:04.521Z,102207.28
2022-09-20T06:18:45.389Z,102210.81
2022-09-20T06:21:41.871Z,102205.53
2022-09-20T06:24:53.423Z,102214.31
2022-09-20T06:27:29.643Z,102209.88
2022-09-20T06:30:05.808Z,102211.59
2022-09-20T06:32:34.607Z,102215.06
2022-09-20T06:35:04.428Z,102215.03
2022-09-20T06:38:11.170Z,102217.59
2022-09-20T06:41:06.999Z,102221.00
2022-09-20T06:43:37.080Z,102214.81
2022-09-20T06:46:04.379Z,102224.38
2022-09-20T06:48:31.519Z,102224.22
2022-09-20T06:50:58.925Z,102223.13
2022-09-20T06:53:32.967Z,102218.44
2022-09-20T06:56:01.147Z,102227.06
2022-09-20T06:58:28.304Z,102222.59
2022-09-20T07:00:55.437Z,102227.84
2022-09-20T07:03:22.532Z,102227.81
2022-09-20T07:05:49.543Z,102231.28
2022-09-20T07:08:16.828Z,102237.44
2022-09-20T07:10:44.015Z,102243.69
2022-09-20T07:13:14.280Z,102242.88
2022-09-20T07:15:41.331Z,102236.69
2022-09-20T07:18:08.391Z,102236.59
2022-09-20T07:20:35.631Z,102239.97
2022-09-20T07:23:03.761Z,102239.81
2022-09-20T07:25:32.121Z,102244.00
2022-09-20T07:27:59.142Z,102236.63
2022-09-20T07:30:26.207Z,102239.94
2022-09-20T07:32:53.620Z,102242.41
2022-09-20T07:35:21.587Z,102243.06
2022-09-20T07:37:48.680Z,102243.78
2022-09-20T07:40:16.424Z,102248.06
2022-09-20T07:42:45.967Z,102243.53
2022-09-20T07:45:13.350Z,102242.56
2022-09-20T07:47:42.044Z,102242.50
2022-09-20T07:50:11.203Z,102243.28
2022-09-20T07:52:38.322Z,102237.91
2022-09-20T07:55:06.906Z,102247.47
2022-09-20T07:57:38.387Z,102245.53
2022-09-20T08:00:09.353Z,102248.88
2022-09-20T08:02:41.975Z,102249.53
2022-09-20T08:05:09.618Z,102263.44
2022-09-20T08:07:38.534Z,102256.34
2022-09-20T08:10:06.222Z,102264.28
2022-09-20T08:15:20.229Z,102266.91
2022-09-20T08:17:48.377Z,102259.72
2022-09-20T08:20:16.801Z,102257.88
2022-09-20T08:22:45.848Z,102266.53
2022-09-20T08:25:19.871Z,102264.59
2022-09-20T08:27:53.884Z,102264.38
2022-09-20T08:30:25.569Z,102267.78
2022-09-20T08:32:55.771Z,102266.75
2022-09-20T08:35:22.778Z,102264.84
2022-09-20T08:37:53.660Z,102269.03
2022-09-20T08:40:24.215Z,102270.63
2022-09-20T08:42:53.439Z,102275.69
2022-09-20T08:45:41.417Z,102274.56
2022-09-20T08:48:16.755Z,102281.59
2022-09-20T08:50:44.070Z,102278.81
2022-09-20T08:53:14.929Z,102282.19
2022-09-20T08:55:43.714Z,102286.38
2022-09-20T08:58:13.538Z,102286.13
2022-09-20T09:00:46.831Z,102288.56
2022-09-20T09:03:17.540Z,102288.44
2022-09-20T09:05:54.978Z,102298.03
2022-09-20T09:08:37.533Z,102288.44
2022-09-20T09:11:18.638Z,102297.38
2022-09-20T09:14:48.859Z,102287.59
2022-09-20T09:17:27.451Z,102293.75
2022-09-20T09:19:56.443Z,102297.13
2022-09-20T09:22:39.595Z,102297.47
2022-09-20T09:25:24.975Z,102292.59
2022-09-20T09:28:06.391Z,102293.66
2022-09-20T09:30:47.697Z,102290.16
2022-09-20T09:33:28.218Z,102291.00
2022-09-20T09:36:06.675Z,102290.72
2022-09-20T09:38:41.473Z,102292.13
2022-09-20T09:41:35.611Z,102296.22
2022-09-20T09:44:20.395Z,102297.53
2022-09-20T09:46:50.135Z,102303.28
2022-09-20T09:49:36.579Z,102293.91
2022-09-20T09:52:14.307Z,102307.41
2022-09-20T09:54:48.923Z,102309.47
2022-09-20T09:57:34.228Z,102307.91
2022-09-20T10:00:21.938Z,102315.19
2022-09-20T10:03:04.326Z,102316.34
2022-09-20T10:06:07.351Z,102320.13
2022-09-20T10:09:19.300Z,102320.47
2022-09-20T10:12:02.643Z,102327.03
2022-09-20T10:15:10.347Z,102326.47
2022-09-20T10:18:08.568Z,102329.34
2022-09-20T10:20:53.250Z,102325.03
2022-09-20T10:24:03.241Z,102328.59
2022-09-20T10:26:56.627Z,102319.84
2022-09-20T10:29:32.784Z,102324.38
2022-09-20T10:32:33.198Z,102325.22
2022-09-20T10:36:00.719Z,102312.81
2022-09-20T10:38:36.731Z,102313.53
2022-09-20T10:41:39.683Z,102301.91
2022-09-20T10:44:18.833Z,102305.97
2022-09-20T10:46:55.627Z,102304.94
2022-09-20T10:49:50.721Z,102308.25
2022-09-20T10:52:43.819Z,102307.91
2022-09-20T10:55:32.855Z,102305.66
2022-09-20T10:58:41.852Z,102303.41
2022-09-20T11:01:47.592Z,102305.91
2022-09-20T11:04:55.181Z,102301.41
2022-09-20T11:07:50.982Z,102308.31
2022-09-20T11:10:29.802Z,102307.38
2022-09-20T11:13:25.015Z,102311.72
2022-09-20T11:16:13.486Z,102314.31
2022-09-20T11:18:48.305Z,102316.97
2022-09-20T11:21:39.554Z,102310.28
2022-09-20T11:24:35.788Z,102318.25
2022-09-20T11:27:15.943Z,102321.97
2022-09-20T11:30:08.277Z,102315.50
2022-09-20T11:32:44.533Z,102318.59
2022-09-20T11:35:11.506Z,102320.81
2022-09-20T11:37:56.379Z,102317.44
2022-09-20T11:40:32.638Z,102323.00
2022-09-20T11:43:06.458Z,102322.88
2022-09-20T11:45:35.783Z,102322.22
2022-09-20T11:48:33.432Z,102319.16
2022-09-20T11:51:34.207Z,102322.16
2022-09-20T11:54:58.406Z,102317.09
2022-09-20T11:57:25.927Z,102319.03
2022-09-20T12:00:01.642Z,102316.25
2022-09-20T12:02:40.739Z,102317.84
2022-09-20T12:05:43.823Z,102316.53
2022-09-20T12:08:40.402Z,102303.91
2022-09-20T12:11:13.233Z,102307.41
2022-09-20T12:13:52.153Z,102312.81
2022-09-20T12:16:46.848Z,102303.13
2022-09-20T12:19:36.559Z,102309.63
2022-09-20T12:22:04.118Z,102303.53
2022-09-20T12:24:44.541Z,102304.59
2022-09-20T12:27:26.399Z,102307.34
2022-09-20T12:30:21.591Z,102309.25
2022-09-20T12:32:57.866Z,102312.94
2022-09-20T12:35:38.951Z,102299.19
2022-09-20T12:38:21.386Z,102302.41
2022-09-20T12:41:27.934Z,102301.25
2022-09-20T12:44:22.320Z,102299.63
2022-09-20T12:47:12.600Z,102302.81
2022-09-20T12:50:04.371Z,102291.31
2022-09-20T12:52:57.673Z,102298.97
2022-09-20T12:55:28.044Z,102290.88
2022-09-20T12:58:18.877Z,102295.34
2022-09-20T13:01:14.570Z,102288.50
2022-09-20T13:03:48.346Z,102288.91
2022-09-20T13:06:16.675Z,102292.00
2022-09-20T13:09:08.545Z,102291.44
2022-09-20T13:11:43.756Z,102283.81
2022-09-20T13:14:18.836Z,102285.75
2022-09-20T13:17:05.372Z,102286.69
2022-09-20T13:19:39.007Z,102284.13
2022-09-20T13:22:14.848Z,102288.69
2022-09-20T13:24:49.199Z,102287.09
2022-09-20T13:27:23.814Z,102288.09
2022-09-20T13:29:51.591Z,102289.16
2022-09-20T13:32:25.404Z,102285.16
2022-09-20T13:35:19.144Z,102283.75
2022-09-20T13:38:05.640Z,102281.66
2022-09-20T13:40:42.340Z,102270.53
2022-09-20T13:43:31.310Z,102277.31
2022-09-20T13:46:08.227Z,102280.16
2022-09-20T13:48:35.730Z,102280.41
2022-09-20T13:51:03.302Z,102277.97
2022-09-20T13:53:42.119Z,102277.50
2022-09-20T13:56:19.520Z,102267.97
2022-09-20T13:58:46.861Z,102278.34
2022-09-20T14:01:32.695Z,102264.69
2022-09-20T14:04:14.585Z,102265.34
2022-09-20T14:06:42.532Z,102264.03
2022-09-20T14:09:23.608Z,102271.44
2022-09-20T14:11:53.318Z,102269.56
2022-09-20T14:14:22.976Z,102265.28
2022-09-20T14:16:52.087Z,102261.81
2022-09-20T14:19:35.969Z,102263.19
2022-09-20T14:22:05.402Z,102267.47
2022-09-20T14:24:37.181Z,102259.91
2022-09-20T14:27:26.402Z,102265.19
2022-09-20T14:29:56.282Z,102265.81
2022-09-20T14:32:54.418Z,102256.69
2022-09-20T14:35:23.090Z,102258.47
2022-09-20T14:38:02.643Z,102262.91
2022-09-20T14:40:44.160Z,102263.81
2022-09-20T14:43:36.236Z,102267.44
2022-09-20T14:46:16.214Z,102265.31
2022-09-20T14:48:45.442Z,102271.81
2022-09-20T14:51:18.862Z,102272.13
2022-09-20T14:53:52.774Z,102279.63
2022-09-20T14:56:51.685Z,102273.88
2022-09-20T14:59:20.974Z,102277.88
2022-09-20T15:02:10.183Z,102283.72
2022-09-20T15:04:40.542Z,102280.84
2022-09-20T15:07:11.738Z,102277.59
2022-09-20T15:09:39.090Z,102265.75
2022-09-20T15:12:16.952Z,102263.53
2022-09-20T15:14:46.098Z,102264.47
2022-09-20T15:17:18.351Z,102262.59
2022-09-20T15:19:49.075Z,102266.94
2022-09-20T15:22:16.824Z,102267.53
2022-09-20T15:24:44.745Z,102269.19
2022-09-20T15:27:12.976Z,102266.69
2022-09-20T15:29:40.135Z,102267.06
2022-09-20T15:32:10.562Z,102264.78
2022-09-20T15:34:38.113Z,102263.00
2022-09-20T15:37:05.184Z,102264.91
2022-09-20T15:39:32.237Z,102268.75
2022-09-20T15:41:59.249Z,102264.00
2022-09-20T15:44:26.210Z,102258.41
2022-09-20T15:46:53.643Z,102264.72
2022-09-20T15:49:22.060Z,102267.38
2022-09-20T15:51:49.378Z,102258.72
2022-09-20T15:54:16.948Z,102262.47
2022-09-20T15:56:43.987Z,102267.25
2022-09-20T15:59:13.266Z,102262.53
2022-09-20T16:01:44.540Z,102275.50
2022-09-20T16:04:21.049Z,102271.56
2022-09-20T16:06:50.382Z,102277.09
2022-09-20T16:09:18.511Z,102272.09
2022-09-20T16:11:49.086Z,102277.72
2022-09-20T16:14:16.804Z,102283.31
2022-09-20T16:16:43.980Z,102276.31
2022-09-20T16:19:24.867Z,102270.09
2022-09-20T16:21:58.943Z,102276.34
2022-09-20T16:24:33.933Z,102278.00
2022-09-20T16:27:04.537Z,102280.75
2022-09-20T16:29:33.462Z,102286.09
2022-09-20T16:32:03.534Z,102280.81
2022-09-20T16:34:36.218Z,102286.09
2022-09-20T16:37:08.816Z,102274.66
2022-09-20T16:39:36.857Z,102276.34
2022-09-20T16:42:08.690Z,102278.25
2022-09-20T16:44:38.933Z,102277.16
2022-09-20T16:47:13.187Z,102280.44
2022-09-20T16:49:40.167Z,102276.78
2022-09-20T16:52:09.127Z,102291.84
2022-09-20T16:54:36.341Z,102291.00
2022-09-20T16:57:03.577Z,102291.09
2022-09-20T16:59:30.798Z,102295.81
2022-09-20T17:01:58.887Z,102296.97
2022-09-20T17:04:26.071Z,102303.38
2022-09-20T17:06:53.350Z,102311.53
2022-09-20T17:09:20.931Z,102302.09
2022-09-20T17:11:50.401Z,102299.91
2022-09-20T17:14:20.753Z,102309.22
2022-09-20T17:16:50.375Z,102312.34
2022-09-20T17:19:29.225Z,102305.72
2022-09-20T17:21:56.366Z,102315.03
2022-09-20T17:24:26.417Z,102312.88
2022-09-20T17:26:53.823Z,102311.59
2022-09-20T17:29:21.070Z,102309.44
2022-09-20T17:31:55.546Z,102319.63
2022-09-20T17:34:25.322Z,102326.16
2022-09-20T17:36:54.957Z,102329.13
2022-09-20T17:39:22.484Z,102331.16
2022-09-20T17:41:50.714Z,102334.91
2022-09-20T17:44:19.874Z,102339.47
2022-09-20T17:46:49.913Z,102344.00
2022-09-20T17:49:20.591Z,102345.13
2022-09-20T17:51:55.329Z,102353.25
2022-09-20T17:54:24.079Z,102356.16
2022-09-20T17:56:55.679Z,102347.59
2022-09-20T17:59:23.035Z,102359.34
2022-09-20T18:01:54.215Z,102356.88
2022-09-20T18:04:22.330Z,102356.19
2022-09-20T18:06:52.245Z,102358.19
2022-09-20T18:09:24.080Z,102361.00
2022-09-20T18:11:54.390Z,102359.47
2022-09-20T18:14:27.446Z,102370.22
2022-09-20T18:17:00.692Z,102374.81
2022-09-20T18:19:35.669Z,102372.34
2022-09-20T18:22:04.234Z,102371.63
2022-09-20T18:24:31.698Z,102371.75
2022-09-20T18:27:00.779Z,102370.09
2022-09-20T18:29:29.154Z,102376.44
2022-09-20T18:31:57.735Z,102375.69
2022-09-20T18:34:31.936Z,102376.66
2022-09-20T18:37:01.721Z,102379.41
2022-09-20T18:39:32.513Z,102383.00
2022-09-20T18:42:00.241Z,102384.00
2022-09-20T18:44:34.236Z,102383.16
2022-09-20T18:47:04.925Z,102383.28
2022-09-20T18:49:32.551Z,102389.53
2022-09-20T18:51:59.640Z,102387.84
2022-09-20T18:54:30.383Z,102387.94
2022-09-20T18:56:58.141Z,102394.22
2022-09-20T18:59:27.742Z,102398.75
2022-09-20T19:02:45.570Z,102395.31
2022-09-20T19:05:37.023Z,102401.56
2022-09-20T19:08:34.172Z,102405.19
2022-09-20T19:11:09.963Z,102411.44
2022-09-20T19:14:05.193Z,102410.63
2022-09-20T19:16:41.303Z,102410.72
2022-09-20T19:19:40.877Z,102415.16
2022-09-20T19:22:51.449Z,102412.66
2022-09-20T19:25:44.014Z,102420.69
2022-09-20T19:28:14.973Z,102428.72
2022-09-20T19:30:42.922Z,102423.53
2022-09-20T19:33:17.929Z,102426.25
2022-09-20T19:35:54.436Z,102432.47
2022-09-20T19:38:45.192Z,102436.94
2022-09-20T19:41:47.240Z,102434.38
2022-09-20T19:44:59.227Z,102437.94
2022-09-20T19:48:15.943Z,102443.25
2022-09-20T19:50:48.478Z,102449.44
2022-09-20T19:53:19.434Z,102452.09
2022-09-20T19:55:52.071Z,102445.13
2022-09-20T19:58:19.540Z,102458.34
2022-09-20T20:00:47.874Z,102458.34
2022-09-20T20:03:16.600Z,102459.28
2022-09-20T20:06:08.391Z,102461.91
2022-09-20T20:09:17.241Z,102473.38
2022-09-20T20:12:05.371Z,102468.16
2022-09-20T20:14:50.780Z,102471.69
2022-09-20T20:18:16.682Z,102464.69
2022-09-20T20:20:53.605Z,102471.72
2022-09-20T20:23:50.176Z,102477.91
2022-09-20T20:26:25.349Z,102479.66
2022-09-20T20:28:52.921Z,102473.53
2022-09-20T20:31:21.420Z,102477.94
2022-09-20T20:33:49.389Z,102481.44
2022-09-20T20:36:17.461Z,102482.34
2022-09-20T20:38:49.649Z,102486.72
2022-09-20T20:41:21.435Z,102487.63
2022-09-20T20:43:57.137Z,102492.00
2022-09-20T20:46:26.003Z,102489.38
2022-09-20T20:48:53.171Z,102494.66
2022-09-20T20:51:23.108Z,102502.56
2022-09-20T20:53:53.218Z,102505.19
2022-09-20T20:56:27.522Z,102512.22
2022-09-20T20:58:55.957Z,102510.47
2022-09-20T21:01:29.002Z,102506.94
2022-09-20T21:03:57.635Z,102513.09
2022-09-20T21:06:34.388Z,102520.97
2022-09-20T21:09:03.858Z,102513.09
2022-09-20T21:11:37.827Z,102520.09
2022-09-20T21:14:07.310Z,102516.56
2022-09-20T21:16:38.174Z,102518.34
2022-09-20T21:19:06.276Z,102525.34
2022-09-20T21:21:38.393Z,102521.84
2022-09-20T21:24:08.627Z,102526.25
2022-09-20T21:26:38.015Z,102523.59
2022-09-20T21:29:08.346Z,102535.00
2022-09-20T21:31:39.055Z,102530.63
2022-09-20T21:34:08.130Z,102539.38
2022-09-20T21:36:39.530Z,102532.34
2022-09-20T21:39:06.612Z,102537.63
2022-09-20T21:41:37.143Z,102535.00
2022-09-20T21:44:06.569Z,102542.91
2022-09-20T21:46:42.475Z,102541.13
2022-09-20T21:49:12.018Z,102532.34
2022-09-20T21:51:45.170Z,102537.63
2022-09-20T21:54:12.411Z,102542.88
2022-09-20T21:56:41.337Z,102530.59
2022-09-20T21:59:09.428Z,102539.38
2022-09-20T22:01:40.284Z,102542.91
2022-09-20T22:04:12.113Z,102539.38
2022-09-20T22:06:44.728Z,102532.38
2022-09-20T22:09:17.542Z,102540.28
2022-09-20T22:11:48.787Z,102531.50
2022-09-20T22:14:19.409Z,102535.91
2022-09-20T22:16:48.587Z,102535.91
2022-09-20T22:19:18.651Z,102533.28
2022-09-20T22:21:50.952Z,102528.88
2022-09-20T22:24:19.307Z,102528.00
2022-09-20T22:26:51.430Z,102536.78
2022-09-20T22:29:19.118Z,102537.69
2022-09-20T22:31:50.019Z,102529.75
2022-09-20T22:34:23.536Z,102532.41
2022-09-20T22:36:50.701Z,102532.41
2022-09-20T22:39:18.133Z,102535.03
2022-09-20T22:41:47.873Z,102543.81
2022-09-20T22:44:15.142Z,102535.03
2022-09-20T22:46:42.167Z,102537.66
2022-09-20T22:49:09.784Z,102534.13
2022-09-20T22:51:37.875Z,102531.50
2022-09-20T22:54:11.754Z,102531.50
2022-09-20T22:56:41.318Z,102541.19
2022-09-20T22:59:12.520Z,102531.50
2022-09-20T23:01:43.622Z,102526.22
2022-09-20T23:04:14.467Z,102531.50
2022-09-20T23:06:48.226Z,102529.72
2022-09-20T23:09:17.960Z,102535.00
2022-09-20T23:11:45.918Z,102535.00
2022-09-20T23:14:20.267Z,102542.03
2022-09-20T23:16:48.651Z,102538.50
2022-09-20T23:19:16.266Z,102540.25
2022-09-20T23:21:44.844Z,102539.38
2022-09-20T23:24:14.488Z,102540.25
2022-09-20T23:26:43.587Z,102534.97
2022-09-20T23:29:14.388Z,102531.44
2022-09-20T23:31:46.174Z,102535.84
2022-09-20T23:34:15.798Z,102537.63
2022-09-20T23:36:44.234Z,102538.50
2022-09-20T23:39:12.435Z,102537.63
2022-09-20T23:41:41.292Z,102535.00
2022-09-20T23:44:10.218Z,102535.00
2022-09-20T23:46:38.518Z,102542.00
2022-09-20T23:49:07.086Z,102530.59
2022-09-20T23:51:35.336Z,102537.63
2022-09-20T23:54:02.779Z,102533.22
2022-09-20T23:56:30.223Z,102539.38
2022-09-20T23:58:57.394Z,102534.13
